createdAt,value
2022-09-23T00:00:09.002Z,64.47
2022-09-23T00:03:16.996Z,62.45
2022-09-23T00:06:11.757Z,61.09
2022-09-23T00:08:59.531Z,60.19
2022-09-23T00:11:47.486Z,57.98
2022-09-23T00:14:37.362Z,58.63
2022-09-23T00:17:25.614Z,61.02
2022-09-23T00:20:14.627Z,66.56
2022-09-23T00:23:02.902Z,67.15
2022-09-23T00:25:59.374Z,64.66
2022-09-23T00:28:49.137Z,62.63
2022-09-23T00:31:39.023Z,61.29
2022-09-23T00:34:26.947Z,60.47
2022-09-23T00:37:16.832Z,59.65
2022-09-23T00:40:05.412Z,57.32
2022-09-23T00:42:53.004Z,58.28
2022-09-23T00:45:45.654Z,60.50
2022-09-23T00:48:35.716Z,64.85
2022-09-23T00:51:28.275Z,67.31
2022-09-23T00:54:18.172Z,65.13
2022-09-23T00:57:07.112Z,62.96
2022-09-23T00:59:55.278Z,61.58
2022-09-23T01:02:43.226Z,60.60
2022-09-23T01:05:33.702Z,59.90
2022-09-23T01:08:23.773Z,57.27
2022-09-23T01:11:48.706Z,58.70
2022-09-23T01:14:56.212Z,59.52
2022-09-23T01:18:03.067Z,66.55
2022-09-23T01:21:18.833Z,67.58
2022-09-23T01:24:48.538Z,64.68
2022-09-23T01:27:56.577Z,62.66
2022-09-23T01:31:10.402Z,61.35
2022-09-23T01:34:26.731Z,60.40
2022-09-23T01:37:41.207Z,59.69
2022-09-23T01:41:13.777Z,57.06
2022-09-23T01:44:12.671Z,58.44
2022-09-23T01:47:27.455Z,60.63
2022-09-23T01:50:39.782Z,67.16
2022-09-23T01:53:33.561Z,67.39
2022-09-23T01:56:33.669Z,64.75
2022-09-23T01:59:38.437Z,62.90
2022-09-23T02:02:36.516Z,61.43
2022-09-23T02:05:37.709Z,61.03
2022-09-23T02:08:53.393Z,60.27
2022-09-23T02:11:46.323Z,57.68
2022-09-23T02:15:11.955Z,58.88
2022-09-23T02:18:13.191Z,60.92
2022-09-23T02:21:07.496Z,66.62
2022-09-23T02:24:09.285Z,67.83
2022-09-23T02:27:40.566Z,65.40
2022-09-23T02:30:40.044Z,63.22
2022-09-23T02:33:39.361Z,62.10
2022-09-23T02:36:54.414Z,61.18
2022-09-23T02:40:20.737Z,60.30
2022-09-23T02:43:19.946Z,60.11
2022-09-23T02:46:08.247Z,57.46
2022-09-23T02:49:04.294Z,58.37
2022-09-23T02:51:54.733Z,60.73
2022-09-23T02:54:42.940Z,65.46
2022-09-23T02:57:31.583Z,67.43
2022-09-23T03:00:20.213Z,64.76
2022-09-23T03:03:49.029Z,62.88
2022-09-23T03:06:57.882Z,61.60
2022-09-23T03:10:10.678Z,60.71
2022-09-23T03:13:30.130Z,59.95
2022-09-23T03:17:04.370Z,57.61
2022-09-23T03:20:38.760Z,60.27
2022-09-23T03:23:37.456Z,66.71
2022-09-23T03:26:33.594Z,66.09
2022-09-23T03:29:23.625Z,63.72
2022-09-23T03:32:14.860Z,62.24
2022-09-23T03:35:06.161Z,61.39
2022-09-23T03:38:12.421Z,60.66
2022-09-23T03:41:04.306Z,60.14
2022-09-23T03:43:53.535Z,59.66
2022-09-23T03:46:44.284Z,57.58
2022-09-23T03:49:40.016Z,59.27
2022-09-23T03:52:28.706Z,61.91
2022-09-23T03:55:19.461Z,66.86
2022-09-23T03:58:08.537Z,67.74
2022-09-23T04:00:58.984Z,65.39
2022-09-23T04:03:46.962Z,63.30
2022-09-23T04:06:35.856Z,62.27
2022-09-23T04:09:24.312Z,61.24
2022-09-23T04:12:23.991Z,60.43
2022-09-23T04:15:12.253Z,59.83
2022-09-23T04:18:00.171Z,57.63
2022-09-23T04:20:49.359Z,58.25
2022-09-23T04:23:37.896Z,60.88
2022-09-23T04:26:25.935Z,66.46
2022-09-23T04:29:14.287Z,67.39
2022-09-23T04:32:02.814Z,64.97
2022-09-23T04:34:50.629Z,63.18
2022-09-23T04:37:38.522Z,61.59
2022-09-23T04:40:29.578Z,60.73
2022-09-23T04:43:23.581Z,60.03
2022-09-23T04:46:15.338Z,57.79
2022-09-23T04:49:03.504Z,57.96
2022-09-23T04:51:51.731Z,60.60
2022-09-23T04:54:41.925Z,65.32
2022-09-23T04:57:30.154Z,67.45
2022-09-23T05:00:18.402Z,65.23
2022-09-23T05:03:07.484Z,63.28
2022-09-23T05:06:00.039Z,62.16
2022-09-23T05:08:51.580Z,61.04
2022-09-23T05:11:39.726Z,60.32
2022-09-23T05:14:27.614Z,59.79
2022-09-23T05:17:15.830Z,58.03
2022-09-23T05:20:05.187Z,57.88
2022-09-23T05:22:55.745Z,60.69
2022-09-23T05:25:45.876Z,65.93
2022-09-23T05:28:36.145Z,66.62
2022-09-23T05:31:27.507Z,64.11
2022-09-23T05:34:16.079Z,62.11
2022-09-23T05:37:04.639Z,60.81
2022-09-23T05:39:52.832Z,59.85
2022-09-23T05:42:41.400Z,57.68
2022-09-23T05:45:32.368Z,58.56
2022-09-23T05:48:20.785Z,60.13
2022-09-23T05:51:27.592Z,64.36
2022-09-23T05:54:19.546Z,66.53
2022-09-23T05:57:07.457Z,63.87
2022-09-23T05:59:55.398Z,62.44
2022-09-23T06:02:43.392Z,61.13
2022-09-23T06:05:31.670Z,59.84
2022-09-23T06:08:19.792Z,57.13
2022-09-23T06:11:27.234Z,58.42
2022-09-23T06:14:15.159Z,59.97
2022-09-23T06:17:03.222Z,63.61
2022-09-23T06:19:54.029Z,65.59
2022-09-23T06:22:41.940Z,62.85
2022-09-23T06:25:30.521Z,61.39
2022-09-23T06:28:18.395Z,59.62
2022-09-23T06:31:17.184Z,58.44
2022-09-23T06:34:11.837Z,60.89
2022-09-23T06:37:08.532Z,61.41
2022-09-23T06:40:00.118Z,64.95
2022-09-23T06:42:52.400Z,63.47
2022-09-23T06:45:40.293Z,61.91
2022-09-23T06:48:29.109Z,60.73
2022-09-23T06:51:21.713Z,59.46
2022-09-23T06:54:09.749Z,59.51
2022-09-23T06:56:58.230Z,56.07
2022-09-23T06:59:46.435Z,56.76
2022-09-23T07:02:34.612Z,53.47
2022-09-23T07:05:23.010Z,51.57
2022-09-23T07:08:13.095Z,48.95
2022-09-23T07:11:06.122Z,45.09
2022-09-23T07:13:54.167Z,44.00
2022-09-23T07:16:42.052Z,41.06
2022-09-23T07:19:30.394Z,38.26
2022-09-23T07:22:19.224Z,36.87
2022-09-23T07:25:07.686Z,34.79
2022-09-23T07:27:56.788Z,32.98
2022-09-23T07:30:57.080Z,32.17
2022-09-23T07:33:47.825Z,31.79
2022-09-23T07:36:37.747Z,30.47
2022-09-23T07:39:26.368Z,29.66
2022-09-23T07:42:14.457Z,29.09
2022-09-23T07:45:02.940Z,28.47
2022-09-23T07:47:50.817Z,28.18
2022-09-23T07:50:40.547Z,27.79
2022-09-23T07:53:30.851Z,28.02
2022-09-23T07:56:20.731Z,27.72
2022-09-23T07:59:15.634Z,27.68
2022-09-23T08:02:03.595Z,26.90
2022-09-23T08:04:51.722Z,26.40
2022-09-23T08:07:39.883Z,26.19
2022-09-23T08:10:28.044Z,26.13
2022-09-23T08:13:16.197Z,26.01
2022-09-23T08:16:04.869Z,25.72
2022-09-23T08:18:53.368Z,25.49
2022-09-23T08:21:41.990Z,25.09
2022-09-23T08:24:32.460Z,24.98
2022-09-23T08:27:20.262Z,24.65
2022-09-23T08:30:09.712Z,24.64
2022-09-23T08:32:57.964Z,24.70
2022-09-23T08:35:45.830Z,25.32
2022-09-23T08:38:34.099Z,25.59
2022-09-23T08:41:37.152Z,25.44
2022-09-23T08:44:54.538Z,25.28
2022-09-23T08:48:10.748Z,25.42
2022-09-23T08:51:11.384Z,26.51
2022-09-23T08:54:00.263Z,27.45
2022-09-23T08:56:52.629Z,28.45
2022-09-23T08:59:44.293Z,29.53
2022-09-23T09:02:35.540Z,30.86
2022-09-23T09:05:28.655Z,32.08
2022-09-23T09:08:25.506Z,33.42
2022-09-23T09:11:16.704Z,34.33
2022-09-23T09:14:40.303Z,35.44
2022-09-23T09:18:22.966Z,36.32
2022-09-23T09:21:16.178Z,37.10
2022-09-23T09:24:37.260Z,38.31
2022-09-23T09:27:25.348Z,39.20
2022-09-23T09:30:14.803Z,40.11
2022-09-23T09:33:18.049Z,40.72
2022-09-23T09:36:43.563Z,41.03
2022-09-23T09:39:32.092Z,41.97
2022-09-23T09:42:27.187Z,42.64
2022-09-23T09:46:02.377Z,42.87
2022-09-23T09:48:59.894Z,43.47
2022-09-23T09:51:47.811Z,43.75
2022-09-23T09:54:35.503Z,44.01
2022-09-23T09:57:37.907Z,43.58
2022-09-23T10:00:26.585Z,43.42
2022-09-23T10:03:14.584Z,43.23
2022-09-23T10:06:22.844Z,42.96
2022-09-23T10:09:15.660Z,42.93
2022-09-23T10:12:27.041Z,42.36
2022-09-23T10:15:44.978Z,41.64
2022-09-23T10:18:39.381Z,40.00
2022-09-23T10:21:37.029Z,38.39
2022-09-23T10:24:31.199Z,36.77
2022-09-23T10:27:31.528Z,35.69
2022-09-23T10:30:28.563Z,34.93
2022-09-23T10:33:28.058Z,34.72
2022-09-23T10:36:18.556Z,34.86
2022-09-23T10:39:28.115Z,35.22
2022-09-23T10:43:21.270Z,35.28
2022-09-23T10:46:46.003Z,35.57
2022-09-23T10:49:44.049Z,36.19
2022-09-23T10:53:02.699Z,35.87
2022-09-23T10:56:22.689Z,34.74
2022-09-23T10:59:41.127Z,35.17
2022-09-23T11:03:24.665Z,35.15
2022-09-23T11:06:18.676Z,35.37
2022-09-23T11:10:18.367Z,35.38
2022-09-23T11:13:45.008Z,35.89
2022-09-23T11:16:49.358Z,35.81
2022-09-23T11:20:22.385Z,35.76
2022-09-23T11:23:40.937Z,35.70
2022-09-23T11:27:06.445Z,35.80
2022-09-23T11:30:22.503Z,36.03
2022-09-23T11:33:14.340Z,36.25
2022-09-23T11:36:40.791Z,36.35
2022-09-23T11:39:38.307Z,36.50
2022-09-23T11:42:33.447Z,36.81
2022-09-23T11:45:34.224Z,36.99
2022-09-23T11:48:57.360Z,37.20
2022-09-23T11:51:57.321Z,37.86
2022-09-23T11:55:21.182Z,38.52
2022-09-23T11:58:25.552Z,39.05
2022-09-23T12:01:45.917Z,38.96
2022-09-23T12:04:55.198Z,38.32
2022-09-23T12:08:31.012Z,38.17
2022-09-23T12:11:46.871Z,37.18
2022-09-23T12:14:59.590Z,36.15
2022-09-23T12:18:27.944Z,35.96
2022-09-23T12:21:49.183Z,35.89
2022-09-23T12:24:59.888Z,35.77
2022-09-23T12:27:51.726Z,36.02
2022-09-23T12:30:42.000Z,35.98
2022-09-23T12:33:33.853Z,36.25
2022-09-23T12:36:36.867Z,36.41
2022-09-23T12:39:37.384Z,36.89
2022-09-23T12:42:30.776Z,37.29
2022-09-23T12:45:35.137Z,37.82
2022-09-23T12:48:44.472Z,37.99
2022-09-23T12:51:34.960Z,38.05
2022-09-23T12:54:24.902Z,38.56
2022-09-23T12:57:35.219Z,38.25
2022-09-23T13:00:29.843Z,38.52
2022-09-23T13:03:41.204Z,39.09
2022-09-23T13:06:42.131Z,39.35
2022-09-23T13:09:37.817Z,39.73
2022-09-23T13:12:36.384Z,40.53
2022-09-23T13:15:36.740Z,40.65
2022-09-23T13:18:54.797Z,41.05
2022-09-23T13:21:42.896Z,41.79
2022-09-23T13:24:54.910Z,42.38
2022-09-23T13:27:47.819Z,42.50
2022-09-23T13:30:36.345Z,43.22
2022-09-23T13:34:04.660Z,43.67
2022-09-23T13:36:53.767Z,43.75
2022-09-23T13:39:44.195Z,44.24
2022-09-23T13:42:40.916Z,45.04
2022-09-23T13:45:34.373Z,45.17
2022-09-23T13:48:25.702Z,45.43
2022-09-23T13:51:39.861Z,46.02
2022-09-23T13:54:52.730Z,46.38
2022-09-23T13:57:43.486Z,46.91
2022-09-23T14:00:37.174Z,47.52
2022-09-23T14:03:37.254Z,47.62
2022-09-23T14:06:27.587Z,48.07
2022-09-23T14:09:23.974Z,48.34
2022-09-23T14:12:12.597Z,48.87
2022-09-23T14:15:00.299Z,49.09
2022-09-23T14:18:06.502Z,49.52
2022-09-23T14:20:54.360Z,49.33
2022-09-23T14:23:45.564Z,49.53
2022-09-23T14:26:39.755Z,49.70
2022-09-23T14:29:32.858Z,50.22
2022-09-23T14:32:25.940Z,50.36
2022-09-23T14:35:27.631Z,50.81
2022-09-23T14:38:49.406Z,51.04
2022-09-23T14:41:44.635Z,51.06
2022-09-23T14:44:35.728Z,51.44
2022-09-23T14:47:25.279Z,51.58
2022-09-23T14:50:39.785Z,51.99
2022-09-23T14:53:48.313Z,51.94
2022-09-23T14:56:43.907Z,52.42
2022-09-23T14:59:37.227Z,52.67
2022-09-23T15:02:39.456Z,53.04
2022-09-23T15:05:51.088Z,53.10
2022-09-23T15:08:42.502Z,53.34
2022-09-23T15:11:31.005Z,53.82
2022-09-23T15:14:37.226Z,53.63
2022-09-23T15:17:36.666Z,53.98
2022-09-23T15:20:27.737Z,54.13
2022-09-23T15:23:55.133Z,54.37
2022-09-23T15:26:52.619Z,54.83
2022-09-23T15:29:40.455Z,55.11
2022-09-23T15:32:28.230Z,56.38
2022-09-23T15:35:23.867Z,55.96
2022-09-23T15:38:12.623Z,56.91
2022-09-23T15:41:00.595Z,56.44
2022-09-23T15:43:49.100Z,57.20
2022-09-23T15:46:38.572Z,57.42
2022-09-23T15:49:36.536Z,57.66
2022-09-23T15:52:24.924Z,58.01
2022-09-23T15:55:22.098Z,59.49
2022-09-23T15:58:10.143Z,60.01
2022-09-23T16:00:58.217Z,60.57
2022-09-23T16:03:46.062Z,63.76
2022-09-23T16:06:36.273Z,68.24
2022-09-23T16:09:24.438Z,66.28
2022-09-23T16:12:12.824Z,62.38
2022-09-23T16:15:00.648Z,58.35
2022-09-23T16:17:49.125Z,57.16
2022-09-23T16:20:42.074Z,58.32
2022-09-23T16:23:37.829Z,59.34
2022-09-23T16:26:35.302Z,59.66
2022-09-23T16:29:23.408Z,61.78
2022-09-23T16:32:11.097Z,65.92
2022-09-23T16:34:59.362Z,68.77
2022-09-23T16:37:48.393Z,66.63
2022-09-23T16:40:36.569Z,64.06
2022-09-23T16:43:24.506Z,61.85
2022-09-23T16:46:16.623Z,58.21
2022-09-23T16:49:05.174Z,57.62
2022-09-23T16:51:53.801Z,58.91
2022-09-23T16:54:54.447Z,59.63
2022-09-23T16:57:42.712Z,60.14
2022-09-23T17:00:49.576Z,61.47
2022-09-23T17:03:41.108Z,66.50
2022-09-23T17:06:29.933Z,67.51
2022-09-23T17:09:26.826Z,64.46
2022-09-23T17:12:28.154Z,61.94
2022-09-23T17:15:16.166Z,60.29
2022-09-23T17:18:06.555Z,57.17
2022-09-23T17:21:06.300Z,57.39
2022-09-23T17:23:56.764Z,59.55
2022-09-23T17:26:49.370Z,61.33
2022-09-23T17:29:40.538Z,65.98
2022-09-23T17:32:28.497Z,67.22
2022-09-23T17:35:16.648Z,64.63
2022-09-23T17:38:04.955Z,62.55
2022-09-23T17:40:56.309Z,61.06
2022-09-23T17:43:47.002Z,60.72
2022-09-23T17:46:34.926Z,58.16
2022-09-23T17:49:24.408Z,58.09
2022-09-23T17:52:12.292Z,60.15
2022-09-23T17:55:00.452Z,61.42
2022-09-23T17:57:51.678Z,65.44
2022-09-23T18:00:39.400Z,67.79
2022-09-23T18:03:29.589Z,65.44
2022-09-23T18:06:23.375Z,63.60
2022-09-23T18:09:11.744Z,62.24
2022-09-23T18:11:59.573Z,61.26
2022-09-23T18:14:49.000Z,60.60
2022-09-23T18:17:37.265Z,58.27
2022-09-23T18:20:25.312Z,58.51
2022-09-23T18:23:13.526Z,59.87
2022-09-23T18:26:01.104Z,60.99
2022-09-23T18:28:53.775Z,65.57
2022-09-23T18:31:44.458Z,68.04
2022-09-23T18:34:32.705Z,65.97
2022-09-23T18:37:21.031Z,64.36
2022-09-23T18:40:14.652Z,62.82
2022-09-23T18:43:03.626Z,61.25
2022-09-23T18:46:04.073Z,60.12
2022-09-23T18:49:11.471Z,57.80
2022-09-23T18:51:59.819Z,57.67
2022-09-23T18:54:51.780Z,59.66
2022-09-23T18:57:42.448Z,61.81
2022-09-23T19:00:31.186Z,66.54
2022-09-23T19:03:19.408Z,68.52
2022-09-23T19:06:17.171Z,66.32
2022-09-23T19:09:13.550Z,64.03
2022-09-23T19:12:03.830Z,62.35
2022-09-23T19:14:53.492Z,61.30
2022-09-23T19:17:44.463Z,60.30
2022-09-23T19:20:35.210Z,57.83
2022-09-23T19:23:23.068Z,57.67
2022-09-23T19:26:14.042Z,59.90
2022-09-23T19:29:04.526Z,61.20
2022-09-23T19:31:52.742Z,66.05
2022-09-23T19:34:40.726Z,67.96
2022-09-23T19:37:29.109Z,65.98
2022-09-23T19:40:17.396Z,63.12
2022-09-23T19:43:13.265Z,61.57
2022-09-23T19:46:01.330Z,60.30
2022-09-23T19:48:49.401Z,57.80
2022-09-23T19:51:41.458Z,57.65
2022-09-23T19:54:29.778Z,58.86
2022-09-23T19:57:17.917Z,61.21
2022-09-23T20:00:06.411Z,66.67
2022-09-23T20:03:00.598Z,67.99
2022-09-23T20:05:57.135Z,65.35
2022-09-23T20:08:46.587Z,63.21
2022-09-23T20:11:37.119Z,61.56
2022-09-23T20:14:27.323Z,60.34
2022-09-23T20:17:17.754Z,57.87
2022-09-23T20:20:06.184Z,58.07
2022-09-23T20:22:55.461Z,60.10
2022-09-23T20:26:01.999Z,65.00
2022-09-23T20:28:50.131Z,66.94
2022-09-23T20:31:40.665Z,65.04
2022-09-23T20:34:30.077Z,63.18
2022-09-23T20:37:20.596Z,61.77
2022-09-23T20:40:12.068Z,60.90
2022-09-23T20:43:00.196Z,59.97
2022-09-23T20:45:52.944Z,57.44
2022-09-23T20:48:41.607Z,57.99
2022-09-23T20:51:29.988Z,59.82
2022-09-23T20:54:19.546Z,61.04
2022-09-23T20:57:13.127Z,66.45
2022-09-23T21:00:02.271Z,68.00
2022-09-23T21:02:52.723Z,65.98
2022-09-23T21:05:42.363Z,63.54
2022-09-23T21:08:33.576Z,61.57
2022-09-23T21:11:22.719Z,60.54
2022-09-23T21:14:11.108Z,59.61
2022-09-23T21:16:59.670Z,57.07
2022-09-23T21:19:47.905Z,58.22
2022-09-23T21:22:36.434Z,60.20
2022-09-23T21:25:29.034Z,65.36
2022-09-23T21:28:20.040Z,66.16
2022-09-23T21:31:12.292Z,63.71
2022-09-23T21:34:11.465Z,62.02
2022-09-23T21:37:02.258Z,60.74
2022-09-23T21:40:10.338Z,59.90
2022-09-23T21:43:01.561Z,57.38
2022-09-23T21:45:50.000Z,58.08
2022-09-23T21:48:41.575Z,61.00
2022-09-23T21:51:59.765Z,66.84
2022-09-23T21:54:47.777Z,66.80
2022-09-23T21:57:35.660Z,64.21
2022-09-23T22:00:23.897Z,62.35
2022-09-23T22:03:12.846Z,61.44
2022-09-23T22:06:12.263Z,60.08
2022-09-23T22:09:03.903Z,57.48
2022-09-23T22:12:11.977Z,58.65
2022-09-23T22:14:59.671Z,60.54
2022-09-23T22:17:48.352Z,64.69
2022-09-23T22:20:37.105Z,67.17
2022-09-23T22:23:25.752Z,65.32
2022-09-23T22:26:13.548Z,63.31
2022-09-23T22:29:20.493Z,61.94
2022-09-23T22:32:30.362Z,60.46
2022-09-23T22:35:19.028Z,59.68
2022-09-23T22:38:06.936Z,57.37
2022-09-23T22:40:55.129Z,58.42
2022-09-23T22:43:43.079Z,60.66
2022-09-23T22:46:34.771Z,65.32
2022-09-23T22:49:22.966Z,66.20
2022-09-23T22:52:12.656Z,63.94
2022-09-23T22:55:01.232Z,62.09
2022-09-23T22:57:51.741Z,60.76
2022-09-23T23:00:39.682Z,59.40
2022-09-23T23:03:27.899Z,56.98
2022-09-23T23:06:16.077Z,58.79
2022-09-23T23:09:15.380Z,61.04
2022-09-23T23:12:03.412Z,66.45
2022-09-23T23:14:51.351Z,66.65
2022-09-23T23:17:41.408Z,63.98
2022-09-23T23:20:32.330Z,62.05
2022-09-23T23:23:20.138Z,60.68
2022-09-23T23:26:21.211Z,59.98
2022-09-23T23:29:12.173Z,57.51
2022-09-23T23:32:00.256Z,58.29
2022-09-23T23:34:48.243Z,60.41
2022-09-23T23:37:36.379Z,65.62
2022-09-23T23:40:24.351Z,67.53
2022-09-23T23:43:12.313Z,65.06
2022-09-23T23:46:01.728Z,63.28
2022-09-23T23:48:49.546Z,61.57
2022-09-23T23:51:37.562Z,60.35
2022-09-23T23:54:25.479Z,58.10
2022-09-23T23:57:13.647Z,58.82
